sensor_id;sensor_type;location;lat;lon;timestamp;pressure;altitude;pressure_sealevel;temperature;humidity
20023;BME280;10172;42.054;24.546;2023-09-30T00:01:21;98393.47;;;19.59;91.12
20023;BME280;10172;42.054;24.546;2023-09-30T00:03:47;98407.28;;;19.39;92.56
20023;BME280;10172;42.054;24.546;2023-09-30T00:06:13;98399.84;;;19.76;89.29
20023;BME280;10172;42.054;24.546;2023-09-30T00:08:38;98412.50;;;20.09;83.10
20023;BME280;10172;42.054;24.546;2023-09-30T00:11:05;98404.69;;;19.98;84.70
20023;BME280;10172;42.054;24.546;2023-09-30T00:13:31;98390.72;;;19.51;89.35
20023;BME280;10172;42.054;24.546;2023-09-30T00:15:57;98402.50;;;18.52;98.37
20023;BME280;10172;42.054;24.546;2023-09-30T00:18:22;98406.53;;;18.48;100.00
20023;BME280;10172;42.054;24.546;2023-09-30T00:20:49;98379.84;;;18.73;98.18
20023;BME280;10172;42.054;24.546;2023-09-30T00:23:14;98406.53;;;18.48;100.00
20023;BME280;10172;42.054;24.546;2023-09-30T00:25:40;98389.88;;;19.16;94.28
20023;BME280;10172;42.054;24.546;2023-09-30T00:28:05;98397.34;;;19.57;87.40
20023;BME280;10172;42.054;24.546;2023-09-30T00:30:31;98399.91;;;19.05;94.30
20023;BME280;10172;42.054;24.546;2023-09-30T00:32:56;98389.03;;;19.33;89.91
20023;BME280;10172;42.054;24.546;2023-09-30T00:35:22;98398.34;;;18.85;95.36
20023;BME280;10172;42.054;24.546;2023-09-30T00:37:47;98403.94;;;18.47;100.00
20023;BME280;10172;42.054;24.546;2023-09-30T00:40:13;98389.06;;;18.16;100.00
20023;BME280;10172;42.054;24.546;2023-09-30T00:42:39;98403.66;;;18.50;100.00
20023;BME280;10172;42.054;24.546;2023-09-30T00:45:05;98392.03;;;18.49;100.00
20023;BME280;10172;42.054;24.546;2023-09-30T00:47:32;98390.09;;;18.69;99.39
20023;BME280;10172;42.054;24.546;2023-09-30T00:49:59;98382.59;;;18.63;98.87
20023;BME280;10172;42.054;24.546;2023-09-30T00:52:24;98382.38;;;18.47;100.00
20023;BME280;10172;42.054;24.546;2023-09-30T00:54:50;98377.44;;;18.15;100.00
20023;BME280;10172;42.054;24.546;2023-09-30T00:57:19;98375.47;;;18.44;100.00
20023;BME280;10172;42.054;24.546;2023-09-30T00:59:46;98371.41;;;18.31;100.00
20023;BME280;10172;42.054;24.546;2023-09-30T01:02:12;98370.22;;;18.43;100.00
20023;BME280;10172;42.054;24.546;2023-09-30T01:04:38;98360.28;;;18.53;98.20
20023;BME280;10172;42.054;24.546;2023-09-30T01:07:03;98387.38;;;18.69;99.84
20023;BME280;10172;42.054;24.546;2023-09-30T01:09:30;98384.00;;;18.67;100.00
20023;BME280;10172;42.054;24.546;2023-09-30T01:11:56;98396.44;;;19.13;96.17
20023;BME280;10172;42.054;24.546;2023-09-30T01:14:29;98374.63;;;18.89;97.53
20023;BME280;10172;42.054;24.546;2023-09-30T01:16:55;98378.44;;;18.51;100.00
20023;BME280;10172;42.054;24.546;2023-09-30T01:19:21;98378.06;;;18.36;100.00
20023;BME280;10172;42.054;24.546;2023-09-30T01:21:49;98372.75;;;18.72;100.00
20023;BME280;10172;42.054;24.546;2023-09-30T01:24:15;98386.69;;;19.20;95.70
20023;BME280;10172;42.054;24.546;2023-09-30T01:26:40;98389.53;;;19.36;95.45
20023;BME280;10172;42.054;24.546;2023-09-30T01:29:08;98397.03;;;19.25;96.98
20023;BME280;10172;42.054;24.546;2023-09-30T01:31:37;98381.63;;;18.99;97.85
20023;BME280;10172;42.054;24.546;2023-09-30T01:34:03;98389.47;;;18.75;100.00
20023;BME280;10172;42.054;24.546;2023-09-30T01:36:28;98398.19;;;19.04;100.00
20023;BME280;10172;42.054;24.546;2023-09-30T01:38:54;98379.09;;;18.80;100.00
20023;BME280;10172;42.054;24.546;2023-09-30T01:41:19;98386.19;;;18.81;100.00
20023;BME280;10172;42.054;24.546;2023-09-30T01:43:45;98381.84;;;19.24;96.89
20023;BME280;10172;42.054;24.546;2023-09-30T01:46:10;98374.47;;;19.08;97.26
20023;BME280;10172;42.054;24.546;2023-09-30T01:48:36;98379.22;;;19.14;97.69
20023;BME280;10172;42.054;24.546;2023-09-30T01:51:01;98373.56;;;18.99;99.68
20023;BME280;10172;42.054;24.546;2023-09-30T01:53:26;98372.00;;;19.15;98.46
20023;BME280;10172;42.054;24.546;2023-09-30T01:55:52;98381.91;;;19.49;93.02
20023;BME280;10172;42.054;24.546;2023-09-30T01:58:17;98365.75;;;19.32;93.42
20023;BME280;10172;42.054;24.546;2023-09-30T02:00:43;98369.53;;;19.03;96.65
20023;BME280;10172;42.054;24.546;2023-09-30T02:03:08;98381.75;;;19.33;95.68
20023;BME280;10172;42.054;24.546;2023-09-30T02:05:34;98383.19;;;19.63;88.86
20023;BME280;10172;42.054;24.546;2023-09-30T02:07:59;98371.34;;;19.56;88.03
20023;BME280;10172;42.054;24.546;2023-09-30T02:10:24;98385.63;;;19.74;86.09
20023;BME280;10172;42.054;24.546;2023-09-30T02:12:50;98384.34;;;18.99;96.58
20023;BME280;10172;42.054;24.546;2023-09-30T02:15:15;98367.16;;;18.38;100.00
20023;BME280;10172;42.054;24.546;2023-09-30T02:17:41;98382.84;;;18.15;100.00
20023;BME280;10172;42.054;24.546;2023-09-30T02:20:11;98387.63;;;18.21;100.00
20023;BME280;10172;42.054;24.546;2023-09-30T02:22:41;98396.22;;;18.62;100.00
20023;BME280;10172;42.054;24.546;2023-09-30T02:25:07;98379.00;;;18.72;100.00
20023;BME280;10172;42.054;24.546;2023-09-30T02:27:33;98364.22;;;18.94;96.74
20023;BME280;10172;42.054;24.546;2023-09-30T02:29:59;98384.47;;;19.16;92.96
20023;BME280;10172;42.054;24.546;2023-09-30T02:32:24;98379.31;;;18.69;97.63
20023;BME280;10172;42.054;24.546;2023-09-30T02:34:50;98386.72;;;18.30;100.00
20023;BME280;10172;42.054;24.546;2023-09-30T02:37:16;98377.25;;;18.26;99.49
20023;BME280;10172;42.054;24.546;2023-09-30T02:39:42;98388.91;;;18.44;100.00
20023;BME280;10172;42.054;24.546;2023-09-30T02:42:08;98377.28;;;18.54;98.43
20023;BME280;10172;42.054;24.546;2023-09-30T02:44:33;98373.69;;;18.35;100.00
20023;BME280;10172;42.054;24.546;2023-09-30T02:46:59;98392.06;;;18.40;100.00
20023;BME280;10172;42.054;24.546;2023-09-30T02:49:24;98388.88;;;18.27;100.00
20023;BME280;10172;42.054;24.546;2023-09-30T02:51:50;98393.44;;;18.44;100.00
20023;BME280;10172;42.054;24.546;2023-09-30T02:54:16;98389.88;;;18.26;100.00
20023;BME280;10172;42.054;24.546;2023-09-30T02:56:41;98386.75;;;17.93;100.00
20023;BME280;10172;42.054;24.546;2023-09-30T02:59:07;98380.44;;;18.12;100.00
20023;BME280;10172;42.054;24.546;2023-09-30T03:01:33;98374.94;;;18.14;100.00
20023;BME280;10172;42.054;24.546;2023-09-30T03:03:58;98391.97;;;17.95;100.00
20023;BME280;10172;42.054;24.546;2023-09-30T03:06:24;98390.34;;;17.75;100.00
20023;BME280;10172;42.054;24.546;2023-09-30T03:08:49;98390.94;;;17.78;100.00
20023;BME280;10172;42.054;24.546;2023-09-30T03:11:14;98379.88;;;17.72;100.00
20023;BME280;10172;42.054;24.546;2023-09-30T03:13:40;98368.72;;;17.57;100.00
20023;BME280;10172;42.054;24.546;2023-09-30T03:16:08;98366.75;;;17.59;100.00
20023;BME280;10172;42.054;24.546;2023-09-30T03:18:33;98365.13;;;17.85;100.00
20023;BME280;10172;42.054;24.546;2023-09-30T03:21:00;98360.31;;;17.79;100.00
20023;BME280;10172;42.054;24.546;2023-09-30T03:23:28;98394.78;;;18.67;94.45
20023;BME280;10172;42.054;24.546;2023-09-30T03:25:57;98386.00;;;19.00;90.29
20023;BME280;10172;42.054;24.546;2023-09-30T03:28:22;98397.97;;;19.16;86.81
20023;BME280;10172;42.054;24.546;2023-09-30T03:30:48;98372.44;;;18.30;96.17
20023;BME280;10172;42.054;24.546;2023-09-30T03:33:13;98394.94;;;17.55;100.00
20023;BME280;10172;42.054;24.546;2023-09-30T03:35:39;98388.94;;;17.71;100.00
20023;BME280;10172;42.054;24.546;2023-09-30T03:38:04;98375.00;;;17.29;100.00
20023;BME280;10172;42.054;24.546;2023-09-30T03:40:30;98378.13;;;17.24;100.00
20023;BME280;10172;42.054;24.546;2023-09-30T03:42:59;98391.22;;;17.75;100.00
20023;BME280;10172;42.054;24.546;2023-09-30T03:45:24;98373.25;;;17.47;100.00
20023;BME280;10172;42.054;24.546;2023-09-30T03:47:50;98380.75;;;17.63;100.00
20023;BME280;10172;42.054;24.546;2023-09-30T03:50:17;98400.31;;;18.11;97.62
20023;BME280;10172;42.054;24.546;2023-09-30T03:52:43;98397.16;;;18.43;93.19
20023;BME280;10172;42.054;24.546;2023-09-30T03:55:13;98393.66;;;18.60;90.13
20023;BME280;10172;42.054;24.546;2023-09-30T03:57:41;98401.88;;;17.10;100.00
20023;BME280;10172;42.054;24.546;2023-09-30T04:00:07;98384.19;;;17.07;100.00
20023;BME280;10172;42.054;24.546;2023-09-30T04:02:33;98402.59;;;17.12;100.00
20023;BME280;10172;42.054;24.546;2023-09-30T04:05:00;98385.31;;;17.33;100.00
20023;BME280;10172;42.054;24.546;2023-09-30T04:07:28;98377.94;;;17.64;100.00
20023;BME280;10172;42.054;24.546;2023-09-30T04:09:54;98402.66;;;18.24;93.47
20023;BME280;10172;42.054;24.546;2023-09-30T04:12:20;98398.38;;;18.58;90.29
20023;BME280;10172;42.054;24.546;2023-09-30T04:14:46;98382.00;;;18.42;93.93
20023;BME280;10172;42.054;24.546;2023-09-30T04:17:11;98383.34;;;18.28;94.27
20023;BME280;10172;42.054;24.546;2023-09-30T04:19:37;98382.84;;;17.78;100.00
20023;BME280;10172;42.054;24.546;2023-09-30T04:22:02;98396.91;;;17.53;100.00
20023;BME280;10172;42.054;24.546;2023-09-30T04:24:27;98406.25;;;16.72;100.00
20023;BME280;10172;42.054;24.546;2023-09-30T04:26:54;98409.31;;;16.58;100.00
20023;BME280;10172;42.054;24.546;2023-09-30T04:29:22;98391.13;;;16.91;100.00
20023;BME280;10172;42.054;24.546;2023-09-30T04:31:48;98406.38;;;17.57;100.00
20023;BME280;10172;42.054;24.546;2023-09-30T04:34:14;98377.94;;;17.55;100.00
20023;BME280;10172;42.054;24.546;2023-09-30T04:36:40;98399.59;;;17.34;100.00
20023;BME280;10172;42.054;24.546;2023-09-30T04:39:05;98373.22;;;17.76;96.91
20023;BME280;10172;42.054;24.546;2023-09-30T04:41:31;98409.81;;;17.59;100.00
20023;BME280;10172;42.054;24.546;2023-09-30T04:43:56;98395.22;;;17.33;100.00
20023;BME280;10172;42.054;24.546;2023-09-30T04:46:22;98406.84;;;17.05;100.00
20023;BME280;10172;42.054;24.546;2023-09-30T04:48:49;98400.91;;;17.11;100.00
20023;BME280;10172;42.054;24.546;2023-09-30T04:51:17;98417.59;;;17.05;100.00
20023;BME280;10172;42.054;24.546;2023-09-30T04:53:44;98400.59;;;16.85;100.00
20023;BME280;10172;42.054;24.546;2023-09-30T04:56:12;98410.63;;;17.50;100.00
20023;BME280;10172;42.054;24.546;2023-09-30T04:58:37;98407.06;;;17.78;99.69
20023;BME280;10172;42.054;24.546;2023-09-30T05:01:03;98394.56;;;17.87;98.71
20023;BME280;10172;42.054;24.546;2023-09-30T05:03:28;98433.81;;;18.26;95.58
20023;BME280;10172;42.054;24.546;2023-09-30T05:05:53;98404.28;;;17.32;100.00
20023;BME280;10172;42.054;24.546;2023-09-30T05:08:22;98413.06;;;17.34;100.00
20023;BME280;10172;42.054;24.546;2023-09-30T05:10:47;98408.50;;;17.06;100.00
20023;BME280;10172;42.054;24.546;2023-09-30T05:13:13;98430.75;;;17.46;100.00
20023;BME280;10172;42.054;24.546;2023-09-30T05:15:39;98413.75;;;17.36;100.00
20023;BME280;10172;42.054;24.546;2023-09-30T05:18:05;98377.00;;;16.89;100.00
20023;BME280;10172;42.054;24.546;2023-09-30T05:20:30;98432.84;;;17.71;100.00
20023;BME280;10172;42.054;24.546;2023-09-30T05:22:56;98436.13;;;18.12;100.00
20023;BME280;10172;42.054;24.546;2023-09-30T05:25:21;98433.69;;;17.81;100.00
20023;BME280;10172;42.054;24.546;2023-09-30T05:27:51;98421.53;;;17.39;100.00
20023;BME280;10172;42.054;24.546;2023-09-30T05:30:16;98434.50;;;17.91;100.00
20023;BME280;10172;42.054;24.546;2023-09-30T05:32:44;98429.03;;;17.55;100.00
20023;BME280;10172;42.054;24.546;2023-09-30T05:35:12;98430.28;;;17.41;100.00
20023;BME280;10172;42.054;24.546;2023-09-30T05:37:41;98429.16;;;17.72;100.00
20023;BME280;10172;42.054;24.546;2023-09-30T05:40:07;98444.09;;;18.40;100.00
20023;BME280;10172;42.054;24.546;2023-09-30T05:42:43;98427.00;;;18.22;100.00
20023;BME280;10172;42.054;24.546;2023-09-30T05:45:10;98445.81;;;18.69;100.00
20023;BME280;10172;42.054;24.546;2023-09-30T05:47:36;98449.19;;;19.16;97.30
20023;BME280;10172;42.054;24.546;2023-09-30T05:50:02;98434.00;;;19.15;95.78
20023;BME280;10172;42.054;24.546;2023-09-30T05:52:32;98438.25;;;18.99;99.46
20023;BME280;10172;42.054;24.546;2023-09-30T05:54:57;98428.16;;;18.20;100.00
20023;BME280;10172;42.054;24.546;2023-09-30T05:57:22;98434.16;;;18.95;100.00
20023;BME280;10172;42.054;24.546;2023-09-30T05:59:48;98430.28;;;19.43;99.13
20023;BME280;10172;42.054;24.546;2023-09-30T06:02:15;98441.09;;;19.68;95.98
20023;BME280;10172;42.054;24.546;2023-09-30T06:04:40;98445.66;;;19.33;99.48
20023;BME280;10172;42.054;24.546;2023-09-30T06:07:06;98430.47;;;19.32;96.54
20023;BME280;10172;42.054;24.546;2023-09-30T06:09:31;98444.81;;;19.93;93.13
20023;BME280;10172;42.054;24.546;2023-09-30T06:11:57;98432.84;;;20.21;92.57
20023;BME280;10172;42.054;24.546;2023-09-30T06:14:22;98458.84;;;20.98;88.59
20023;BME280;10172;42.054;24.546;2023-09-30T06:16:47;98446.00;;;20.84;89.58
20023;BME280;10172;42.054;24.546;2023-09-30T06:19:13;98458.38;;;21.03;85.06
20023;BME280;10172;42.054;24.546;2023-09-30T06:21:38;98450.19;;;21.61;81.78
20023;BME280;10172;42.054;24.546;2023-09-30T06:24:05;98466.44;;;22.09;76.84
20023;BME280;10172;42.054;24.546;2023-09-30T06:26:30;98455.56;;;22.25;73.92
20023;BME280;10172;42.054;24.546;2023-09-30T06:28:56;98469.91;;;22.50;72.93
20023;BME280;10172;42.054;24.546;2023-09-30T06:31:22;98458.97;;;22.27;69.59
20023;BME280;10172;42.054;24.546;2023-09-30T06:33:48;98472.06;;;22.71;68.46
20023;BME280;10172;42.054;24.546;2023-09-30T06:36:14;98480.81;;;22.89;67.71
20023;BME280;10172;42.054;24.546;2023-09-30T06:38:40;98472.59;;;23.05;63.92
20023;BME280;10172;42.054;24.546;2023-09-30T06:41:07;98463.69;;;23.19;62.00
20023;BME280;10172;42.054;24.546;2023-09-30T06:43:33;98467.19;;;23.58;62.09
20023;BME280;10172;42.054;24.546;2023-09-30T06:46:05;98474.09;;;23.84;58.29
20023;BME280;10172;42.054;24.546;2023-09-30T06:48:32;98449.88;;;23.97;57.90
20023;BME280;10172;42.054;24.546;2023-09-30T06:50:58;98477.69;;;23.84;56.97
20023;BME280;10172;42.054;24.546;2023-09-30T06:53:24;98477.13;;;24.26;55.19
20023;BME280;10172;42.054;24.546;2023-09-30T06:55:49;98477.97;;;23.89;54.61
20023;BME280;10172;42.054;24.546;2023-09-30T06:58:16;98473.13;;;23.99;55.90
20023;BME280;10172;42.054;24.546;2023-09-30T07:00:46;98478.91;;;24.33;53.81
20023;BME280;10172;42.054;24.546;2023-09-30T07:03:12;98463.38;;;24.05;53.75
20023;BME280;10172;42.054;24.546;2023-09-30T07:05:39;98466.47;;;24.02;54.70
20023;BME280;10172;42.054;24.546;2023-09-30T07:08:05;98492.41;;;23.90;55.28
20023;BME280;10172;42.054;24.546;2023-09-30T07:10:30;98475.28;;;24.70;53.78
20023;BME280;10172;42.054;24.546;2023-09-30T07:12:56;98464.03;;;25.03;53.02
20023;BME280;10172;42.054;24.546;2023-09-30T07:15:22;98461.59;;;24.49;51.69
20023;BME280;10172;42.054;24.546;2023-09-30T07:17:47;98472.03;;;24.89;52.05
20023;BME280;10172;42.054;24.546;2023-09-30T07:20:14;98471.91;;;24.39;51.51
20023;BME280;10172;42.054;24.546;2023-09-30T07:22:39;98487.75;;;23.53;54.34
20023;BME280;10172;42.054;24.546;2023-09-30T07:25:06;98481.84;;;24.61;52.44
20023;BME280;10172;42.054;24.546;2023-09-30T07:27:31;98462.72;;;24.69;52.27
20023;BME280;10172;42.054;24.546;2023-09-30T07:29:57;98478.38;;;24.96;51.58
20023;BME280;10172;42.054;24.546;2023-09-30T07:32:22;98466.63;;;23.09;54.26
20023;BME280;10172;42.054;24.546;2023-09-30T07:34:49;98487.75;;;24.50;52.81
20023;BME280;10172;42.054;24.546;2023-09-30T07:37:15;98469.09;;;23.72;54.04
20023;BME280;10172;42.054;24.546;2023-09-30T07:39:42;98473.03;;;24.30;53.14
20023;BME280;10172;42.054;24.546;2023-09-30T07:42:11;98471.53;;;23.67;52.62
20023;BME280;10172;42.054;24.546;2023-09-30T07:47:05;98461.28;;;24.15;51.64
20023;BME280;10172;42.054;24.546;2023-09-30T07:49:38;98479.09;;;23.57;54.25
20023;BME280;10172;42.054;24.546;2023-09-30T07:52:03;98470.94;;;23.57;54.47
20023;BME280;10172;42.054;24.546;2023-09-30T07:54:29;98490.69;;;23.89;54.38
20023;BME280;10172;42.054;24.546;2023-09-30T07:56:54;98489.06;;;24.39;53.46
20023;BME280;10172;42.054;24.546;2023-09-30T07:59:20;98483.31;;;24.20;54.77
20023;BME280;10172;42.054;24.546;2023-09-30T08:01:48;98492.84;;;23.93;54.74
20023;BME280;10172;42.054;24.546;2023-09-30T08:04:13;98463.84;;;24.75;53.24
20023;BME280;10172;42.054;24.546;2023-09-30T08:06:39;98486.72;;;23.76;54.74
20023;BME280;10172;42.054;24.546;2023-09-30T08:09:05;98473.19;;;24.14;54.07
20023;BME280;10172;42.054;24.546;2023-09-30T08:11:35;98484.56;;;24.32;53.34
20023;BME280;10172;42.054;24.546;2023-09-30T08:14:05;98464.25;;;24.86;51.71
20023;BME280;10172;42.054;24.546;2023-09-30T08:16:37;98486.66;;;25.03;51.53
20023;BME280;10172;42.054;24.546;2023-09-30T08:19:03;98479.56;;;25.80;49.23
20023;BME280;10172;42.054;24.546;2023-09-30T08:21:30;98478.66;;;24.72;51.35
20023;BME280;10172;42.054;24.546;2023-09-30T08:23:56;98484.75;;;25.04;51.43
20023;BME280;10172;42.054;24.546;2023-09-30T08:26:22;98463.25;;;23.84;52.49
20023;BME280;10172;42.054;24.546;2023-09-30T08:28:47;98458.88;;;24.64;51.44
20023;BME280;10172;42.054;24.546;2023-09-30T08:31:12;98460.84;;;24.55;49.17
20023;BME280;10172;42.054;24.546;2023-09-30T08:33:38;98464.31;;;24.64;49.74
20023;BME280;10172;42.054;24.546;2023-09-30T08:36:06;98456.94;;;25.44;49.34
20023;BME280;10172;42.054;24.546;2023-09-30T08:38:37;98474.88;;;25.74;47.68
20023;BME280;10172;42.054;24.546;2023-09-30T08:41:02;98476.84;;;25.80;47.47
20023;BME280;10172;42.054;24.546;2023-09-30T08:43:28;98460.97;;;25.63;47.86
20023;BME280;10172;42.054;24.546;2023-09-30T08:45:58;98469.44;;;26.17;46.90
20023;BME280;10172;42.054;24.546;2023-09-30T08:48:26;98474.50;;;26.20;47.24
20023;BME280;10172;42.054;24.546;2023-09-30T08:50:52;98469.22;;;27.21;44.49
20023;BME280;10172;42.054;24.546;2023-09-30T08:53:18;98459.22;;;26.87;45.12
20023;BME280;10172;42.054;24.546;2023-09-30T08:55:45;98457.41;;;27.07;44.52
20023;BME280;10172;42.054;24.546;2023-09-30T08:58:12;98458.91;;;28.16;42.38
20023;BME280;10172;42.054;24.546;2023-09-30T09:00:38;98461.59;;;27.64;42.12
20023;BME280;10172;42.054;24.546;2023-09-30T09:03:05;98458.72;;;27.24;43.31
20023;BME280;10172;42.054;24.546;2023-09-30T09:05:31;98457.25;;;27.22;42.16
20023;BME280;10172;42.054;24.546;2023-09-30T09:07:56;98474.78;;;27.41;41.40
20023;BME280;10172;42.054;24.546;2023-09-30T09:10:22;98450.47;;;27.92;41.49
20023;BME280;10172;42.054;24.546;2023-09-30T09:12:55;98467.22;;;27.43;41.58
20023;BME280;10172;42.054;24.546;2023-09-30T09:15:27;98458.84;;;27.64;41.21
20023;BME280;10172;42.054;24.546;2023-09-30T09:17:54;98441.22;;;27.86;40.45
20023;BME280;10172;42.054;24.546;2023-09-30T09:20:24;98451.72;;;27.63;40.38
20023;BME280;10172;42.054;24.546;2023-09-30T09:22:55;98449.19;;;27.55;39.51
20023;BME280;10172;42.054;24.546;2023-09-30T09:25:21;98444.06;;;28.83;38.42
20023;BME280;10172;42.054;24.546;2023-09-30T09:27:51;98429.41;;;28.44;38.44
20023;BME280;10172;42.054;24.546;2023-09-30T09:33:03;98448.09;;;28.61;36.92
20023;BME280;10172;42.054;24.546;2023-09-30T09:35:32;98429.41;;;27.66;38.68
20023;BME280;10172;42.054;24.546;2023-09-30T09:40:29;98425.22;;;27.96;37.84
20023;BME280;10172;42.054;24.546;2023-09-30T09:42:56;98424.81;;;27.99;37.05
20023;BME280;10172;42.054;24.546;2023-09-30T09:45:23;98426.81;;;28.82;37.02
20023;BME280;10172;42.054;24.546;2023-09-30T09:47:49;98421.16;;;28.58;37.18
20023;BME280;10172;42.054;24.546;2023-09-30T09:50:17;98409.72;;;28.03;36.45
20023;BME280;10172;42.054;24.546;2023-09-30T09:52:44;98413.16;;;28.76;36.49
20023;BME280;10172;42.054;24.546;2023-09-30T09:55:12;98398.31;;;27.54;37.08
20023;BME280;10172;42.054;24.546;2023-09-30T09:57:39;98395.38;;;27.49;39.22
20023;BME280;10172;42.054;24.546;2023-09-30T10:00:05;98407.97;;;28.28;37.46
20023;BME280;10172;42.054;24.546;2023-09-30T10:02:39;98416.19;;;27.63;38.43
20023;BME280;10172;42.054;24.546;2023-09-30T10:05:04;98392.75;;;28.72;36.85
20023;BME280;10172;42.054;24.546;2023-09-30T10:07:36;98399.16;;;28.26;37.11
20023;BME280;10172;42.054;24.546;2023-09-30T10:10:07;98385.25;;;28.34;37.10
20023;BME280;10172;42.054;24.546;2023-09-30T10:12:37;98384.09;;;29.19;36.31
20023;BME280;10172;42.054;24.546;2023-09-30T10:15:39;98394.94;;;29.70;32.58
20023;BME280;10172;42.054;24.546;2023-09-30T10:18:07;98389.53;;;29.32;32.92
20023;BME280;10172;42.054;24.546;2023-09-30T10:20:34;98387.91;;;29.25;32.63
20023;BME280;10172;42.054;24.546;2023-09-30T10:25:49;98386.31;;;27.61;35.32
20023;BME280;10172;42.054;24.546;2023-09-30T10:28:43;98362.56;;;28.21;33.94
20023;BME280;10172;42.054;24.546;2023-09-30T10:31:22;98376.75;;;29.51;32.69
20023;BME280;10172;42.054;24.546;2023-09-30T10:36:36;98377.63;;;29.45;31.93
20023;BME280;10172;42.054;24.546;2023-09-30T10:39:04;98360.00;;;29.90;31.99
20023;BME280;10172;42.054;24.546;2023-09-30T10:46:48;98351.34;;;29.37;31.83
20023;BME280;10172;42.054;24.546;2023-09-30T10:51:52;98347.34;;;30.14;30.76
20023;BME280;10172;42.054;24.546;2023-09-30T10:54:25;98357.22;;;30.15;30.39
20023;BME280;10172;42.054;24.546;2023-09-30T10:56:51;98333.13;;;29.99;30.46
20023;BME280;10172;42.054;24.546;2023-09-30T10:59:24;98358.91;;;30.59;30.73
20023;BME280;10172;42.054;24.546;2023-09-30T11:01:50;98357.88;;;30.90;29.99
20023;BME280;10172;42.054;24.546;2023-09-30T11:04:17;98332.25;;;30.77;30.02
20023;BME280;10172;42.054;24.546;2023-09-30T11:06:43;98324.19;;;29.85;30.74
20023;BME280;10172;42.054;24.546;2023-09-30T11:09:15;98330.13;;;30.25;30.06
20023;BME280;10172;42.054;24.546;2023-09-30T11:11:47;98356.81;;;30.72;30.49
20023;BME280;10172;42.054;24.546;2023-09-30T11:14:22;98346.44;;;30.74;30.14
20023;BME280;10172;42.054;24.546;2023-09-30T11:16:49;98351.31;;;30.91;30.07
20023;BME280;10172;42.054;24.546;2023-09-30T11:19:15;98330.66;;;30.34;30.38
20023;BME280;10172;42.054;24.546;2023-09-30T11:21:41;98331.06;;;30.55;30.19
20023;BME280;10172;42.054;24.546;2023-09-30T11:24:09;98337.88;;;30.83;29.58
20023;BME280;10172;42.054;24.546;2023-09-30T11:26:34;98336.09;;;30.76;29.53
20023;BME280;10172;42.054;24.546;2023-09-30T11:31:31;98311.19;;;29.99;30.27
20023;BME280;10172;42.054;24.546;2023-09-30T11:33:59;98317.91;;;30.03;29.39
20023;BME280;10172;42.054;24.546;2023-09-30T11:36:29;98321.41;;;30.83;29.36
20023;BME280;10172;42.054;24.546;2023-09-30T11:38:55;98323.13;;;30.47;29.44
20023;BME280;10172;42.054;24.546;2023-09-30T11:41:21;98312.66;;;30.92;29.04
20023;BME280;10172;42.054;24.546;2023-09-30T11:46:30;98310.88;;;30.79;29.26
20023;BME280;10172;42.054;24.546;2023-09-30T11:49:03;98306.75;;;30.89;29.02
20023;BME280;10172;42.054;24.546;2023-09-30T11:51:42;98301.25;;;31.07;28.76
20023;BME280;10172;42.054;24.546;2023-09-30T11:54:11;98302.94;;;30.42;29.00
20023;BME280;10172;42.054;24.546;2023-09-30T11:56:36;98286.66;;;30.04;30.04
20023;BME280;10172;42.054;24.546;2023-09-30T11:59:03;98291.13;;;30.41;29.21
20023;BME280;10172;42.054;24.546;2023-09-30T12:01:29;98279.53;;;30.87;29.45
20023;BME280;10172;42.054;24.546;2023-09-30T12:03:58;98284.19;;;30.87;28.30
20023;BME280;10172;42.054;24.546;2023-09-30T12:06:23;98261.91;;;30.95;29.03
20023;BME280;10172;42.054;24.546;2023-09-30T12:08:49;98268.25;;;30.77;29.03
20023;BME280;10172;42.054;24.546;2023-09-30T12:11:17;98277.56;;;30.94;28.86
20023;BME280;10172;42.054;24.546;2023-09-30T12:13:43;98271.84;;;30.77;28.93
20023;BME280;10172;42.054;24.546;2023-09-30T12:16:10;98263.28;;;30.56;28.75
20023;BME280;10172;42.054;24.546;2023-09-30T12:18:35;98278.38;;;29.68;29.68
20023;BME280;10172;42.054;24.546;2023-09-30T12:21:01;98263.19;;;30.44;28.68
20023;BME280;10172;42.054;24.546;2023-09-30T12:23:28;98250.09;;;29.67;29.71
20023;BME280;10172;42.054;24.546;2023-09-30T12:25:53;98262.75;;;30.29;29.51
20023;BME280;10172;42.054;24.546;2023-09-30T12:28:19;98261.19;;;30.69;28.50
20023;BME280;10172;42.054;24.546;2023-09-30T12:30:46;98252.81;;;30.28;28.84
20023;BME280;10172;42.054;24.546;2023-09-30T12:33:11;98231.97;;;29.66;29.28
20023;BME280;10172;42.054;24.546;2023-09-30T12:35:37;98255.41;;;30.59;29.23
20023;BME280;10172;42.054;24.546;2023-09-30T12:38:02;98248.84;;;30.90;28.29
20023;BME280;10172;42.054;24.546;2023-09-30T12:40:28;98246.44;;;29.98;29.14
20023;BME280;10172;42.054;24.546;2023-09-30T12:42:54;98245.09;;;30.73;28.97
20023;BME280;10172;42.054;24.546;2023-09-30T12:45:20;98244.72;;;30.99;28.15
20023;BME280;10172;42.054;24.546;2023-09-30T12:47:45;98234.84;;;30.80;28.16
20023;BME280;10172;42.054;24.546;2023-09-30T12:50:12;98206.06;;;30.83;28.06
20023;BME280;10172;42.054;24.546;2023-09-30T12:52:38;98217.78;;;30.30;28.52
20023;BME280;10172;42.054;24.546;2023-09-30T12:55:04;98216.16;;;30.59;28.23
20023;BME280;10172;42.054;24.546;2023-09-30T12:57:30;98231.78;;;30.58;28.22
20023;BME280;10172;42.054;24.546;2023-09-30T12:59:56;98222.66;;;30.46;28.38
20023;BME280;10172;42.054;24.546;2023-09-30T13:02:22;98208.63;;;30.66;28.26
20023;BME280;10172;42.054;24.546;2023-09-30T13:04:47;98212.47;;;30.95;28.26
20023;BME280;10172;42.054;24.546;2023-09-30T13:07:14;98209.66;;;31.24;27.64
20023;BME280;10172;42.054;24.546;2023-09-30T13:09:39;98202.00;;;30.73;28.09
20023;BME280;10172;42.054;24.546;2023-09-30T13:12:06;98219.66;;;30.77;28.58